createdAt,value
2022-09-16T00:00:45.219Z,19.90
2022-09-16T00:05:53.291Z,19.80
2022-09-16T00:11:00.491Z,19.80
2022-09-16T00:16:08.625Z,19.80
2022-09-16T00:21:11.453Z,19.80
2022-09-16T00:26:14.001Z,19.70
2022-09-16T00:31:17.042Z,19.70
2022-09-16T00:36:20.357Z,19.80
2022-09-16T00:41:26.162Z,19.80
2022-09-16T00:46:51.655Z,19.80
2022-09-16T00:51:59.583Z,19.80
2022-09-16T00:57:03.235Z,19.60
2022-09-16T01:02:13.231Z,19.80
2022-09-16T01:07:16.163Z,19.80
2022-09-16T01:12:18.636Z,19.80
2022-09-16T01:17:28.182Z,19.60
2022-09-16T01:22:51.513Z,19.50
2022-09-16T01:28:24.525Z,19.60
2022-09-16T01:33:30.055Z,19.60
2022-09-16T01:39:00.118Z,19.70
2022-09-16T01:44:10.815Z,19.60
2022-09-16T01:49:48.733Z,19.70
2022-09-16T01:54:59.795Z,19.60
2022-09-16T02:00:10.912Z,19.60
2022-09-16T02:05:19.009Z,19.60
2022-09-16T02:10:35.592Z,19.60
2022-09-16T02:15:42.262Z,19.70
2022-09-16T02:20:46.677Z,19.60
2022-09-16T02:25:50.508Z,19.70
2022-09-16T02:30:56.880Z,19.60
2022-09-16T02:36:00.881Z,19.60
2022-09-16T02:41:03.575Z,19.60
2022-09-16T02:46:27.558Z,19.60
2022-09-16T02:51:42.422Z,19.60
2022-09-16T02:56:44.966Z,19.60
2022-09-16T03:01:47.491Z,19.60
2022-09-16T03:06:50.130Z,19.60
2022-09-16T03:12:08.758Z,19.50
2022-09-16T03:17:28.469Z,19.60
2022-09-16T03:22:43.918Z,19.50
2022-09-16T03:28:04.248Z,19.60
2022-09-16T03:33:15.439Z,19.50
2022-09-16T03:38:19.852Z,19.50
2022-09-16T03:43:22.396Z,19.50
2022-09-16T03:48:24.961Z,19.30
2022-09-16T03:53:27.267Z,19.50
2022-09-16T03:58:29.624Z,19.50
2022-09-16T04:03:33.403Z,19.60
2022-09-16T04:08:37.430Z,19.60
2022-09-16T04:13:39.833Z,19.50
2022-09-16T04:18:42.393Z,19.60
2022-09-16T04:23:45.080Z,19.60
2022-09-16T04:28:48.157Z,19.50
2022-09-16T04:33:51.079Z,19.50
2022-09-16T04:38:53.757Z,19.50
2022-09-16T04:43:58.280Z,19.40
2022-09-16T04:49:01.063Z,19.40
2022-09-16T04:54:03.701Z,19.40
2022-09-16T04:59:06.773Z,19.50
2022-09-16T05:04:10.567Z,19.60
2022-09-16T05:09:13.671Z,19.60
2022-09-16T05:14:18.461Z,19.50
2022-09-16T05:19:20.936Z,19.40
2022-09-16T05:24:23.364Z,19.60
2022-09-16T05:29:25.788Z,19.60
2022-09-16T05:34:28.852Z,19.60
2022-09-16T05:39:31.242Z,19.60
2022-09-16T05:44:34.086Z,19.60
2022-09-16T05:49:37.216Z,19.40
2022-09-16T05:54:40.618Z,18.00
2022-09-16T05:59:43.137Z,17.50
2022-09-16T06:04:45.580Z,17.60
2022-09-16T06:09:48.172Z,18.50
2022-09-16T06:14:50.673Z,17.90
2022-09-16T06:19:53.163Z,17.10
2022-09-16T06:24:55.577Z,17.10
2022-09-16T06:29:57.996Z,16.60
2022-09-16T06:35:00.454Z,16.30
2022-09-16T06:40:03.136Z,16.80
2022-09-16T06:45:06.755Z,16.40
2022-09-16T06:50:09.615Z,16.40
2022-09-16T06:55:12.053Z,18.00
2022-09-16T07:00:14.780Z,17.60
2022-09-16T07:05:17.180Z,17.40
2022-09-16T07:10:19.542Z,17.60
2022-09-16T07:15:22.116Z,18.40
2022-09-16T07:20:24.514Z,19.60
2022-09-16T07:25:31.395Z,20.10
2022-09-16T07:30:36.372Z,19.70
2022-09-16T07:35:39.717Z,20.30
2022-09-16T07:40:42.325Z,20.40
2022-09-16T07:45:44.923Z,20.20
2022-09-16T07:50:58.980Z,20.80
2022-09-16T07:56:03.728Z,19.40
2022-09-16T08:01:08.009Z,20.30
2022-09-16T08:06:16.528Z,20.70
2022-09-16T08:11:19.593Z,20.60
2022-09-16T08:16:22.972Z,20.50
2022-09-16T08:21:28.874Z,19.90
2022-09-16T08:26:31.470Z,20.40
2022-09-16T08:31:34.176Z,20.00
2022-09-16T08:36:37.373Z,21.00
2022-09-16T08:41:48.876Z,21.00
2022-09-16T08:47:01.812Z,21.30
2022-09-16T08:52:13.514Z,19.30
2022-09-16T08:57:25.634Z,20.20
2022-09-16T09:02:54.470Z,20.90
2022-09-16T09:08:09.222Z,20.10
2022-09-16T09:13:31.705Z,21.00
2022-09-16T09:18:57.733Z,20.70
2022-09-16T09:24:00.082Z,20.70
2022-09-16T09:29:14.024Z,19.70
2022-09-16T09:34:31.676Z,19.90
2022-09-16T09:40:01.302Z,19.70
2022-09-16T09:45:05.435Z,20.90
2022-09-16T09:50:17.113Z,20.50
2022-09-16T09:55:22.496Z,20.90
2022-09-16T10:00:25.044Z,18.80
2022-09-16T10:05:29.676Z,20.10
2022-09-16T10:10:35.208Z,20.00
2022-09-16T10:15:39.185Z,19.70
2022-09-16T10:20:59.590Z,20.00
2022-09-16T10:26:26.099Z,19.80
2022-09-16T10:31:41.784Z,19.00
2022-09-16T10:36:46.226Z,19.20
2022-09-16T10:41:51.130Z,19.60
2022-09-16T10:46:59.811Z,19.10
2022-09-16T10:52:24.683Z,19.10
2022-09-16T10:57:37.429Z,19.00
2022-09-16T11:03:10.910Z,19.30
2022-09-16T11:08:39.719Z,18.70
2022-09-16T11:14:00.904Z,19.60
2022-09-16T11:19:10.572Z,21.10
2022-09-16T11:24:27.760Z,20.70
2022-09-16T11:29:42.374Z,21.20
2022-09-16T11:55:18.516Z,22.20
2022-09-16T12:00:21.270Z,22.00
2022-09-16T12:05:26.859Z,21.90
2022-09-16T12:10:38.312Z,21.20
2022-09-16T12:16:15.579Z,22.50
2022-09-16T12:21:36.125Z,22.20
2022-09-16T12:26:43.424Z,22.60
2022-09-16T12:32:17.794Z,22.00
2022-09-16T12:37:39.363Z,22.00
2022-09-16T12:43:07.835Z,22.50
2022-09-16T12:48:34.870Z,22.20
2022-09-16T12:53:49.330Z,23.00
2022-09-16T12:59:16.926Z,22.40
2022-09-16T13:04:43.162Z,18.50
2022-09-16T13:09:47.658Z,17.10
2022-09-16T13:14:56.924Z,19.50
2022-09-16T13:20:17.781Z,16.20
2022-09-16T13:25:22.524Z,15.90
2022-09-16T13:30:38.723Z,15.00
2022-09-16T13:35:43.604Z,15.10
2022-09-16T13:41:00.715Z,16.20
2022-09-16T13:46:16.113Z,18.20
2022-09-16T13:51:23.943Z,19.10
2022-09-16T13:56:33.576Z,18.20
2022-09-16T14:02:01.543Z,17.50
2022-09-16T14:07:13.911Z,17.30
2022-09-16T14:12:29.612Z,18.60
2022-09-16T14:17:50.989Z,20.50
2022-09-16T14:23:16.863Z,21.30
2022-09-16T14:28:22.380Z,22.00
2022-09-16T14:33:41.649Z,21.50
2022-09-16T14:38:58.335Z,21.70
2022-09-16T14:44:17.278Z,22.30
2022-09-16T14:49:20.240Z,20.60
2022-09-16T14:54:24.737Z,20.60
2022-09-16T14:59:34.305Z,20.70
2022-09-16T15:04:40.872Z,20.90
2022-09-16T15:09:53.681Z,20.90
2022-09-16T15:14:56.997Z,21.20
2022-09-16T15:20:00.236Z,20.80
2022-09-16T15:25:21.671Z,21.00
2022-09-16T15:30:31.565Z,19.80
2022-09-16T15:35:49.656Z,20.00
2022-09-16T15:41:13.329Z,21.00
2022-09-16T15:46:22.175Z,21.80
2022-09-16T15:51:37.545Z,22.50
2022-09-16T15:56:58.154Z,22.60
2022-09-16T16:02:07.815Z,22.70
2022-09-16T16:07:15.567Z,22.60
2022-09-16T16:12:22.506Z,22.30
2022-09-16T16:17:26.215Z,22.80
2022-09-16T16:22:31.719Z,21.80
2022-09-16T16:27:34.772Z,21.40
2022-09-16T16:32:40.201Z,20.40
2022-09-16T16:37:47.113Z,20.00
2022-09-16T16:42:49.992Z,19.50
2022-09-16T16:47:53.302Z,20.00
2022-09-16T16:52:55.779Z,20.30
2022-09-16T16:57:58.123Z,20.50
2022-09-16T17:03:00.553Z,20.70
2022-09-16T17:08:03.034Z,20.80
2022-09-16T17:13:05.515Z,20.90
2022-09-16T17:18:07.924Z,20.80
2022-09-16T17:23:10.323Z,20.90
2022-09-16T17:28:12.713Z,20.90
2022-09-16T17:33:15.317Z,20.90
2022-09-16T17:38:17.759Z,21.00
2022-09-16T17:43:20.133Z,21.00
2022-09-16T17:48:22.585Z,20.90
2022-09-16T17:53:25.648Z,20.70
2022-09-16T17:58:27.986Z,20.70
2022-09-16T18:03:30.415Z,20.70
2022-09-16T18:08:32.935Z,20.70
2022-09-16T18:13:36.535Z,20.50
2022-09-16T18:18:41.186Z,20.60
2022-09-16T18:23:44.455Z,20.80
2022-09-16T18:29:08.704Z,20.70
2022-09-16T18:34:11.192Z,20.80
2022-09-16T18:39:16.630Z,20.60
2022-09-16T18:44:21.479Z,20.60
2022-09-16T18:49:28.072Z,20.60
2022-09-16T18:54:30.894Z,20.50
2022-09-16T18:59:34.591Z,20.50
2022-09-16T19:04:42.790Z,20.60
2022-09-16T19:09:46.038Z,20.50
2022-09-16T19:14:48.582Z,20.40
2022-09-16T19:19:51.328Z,20.50
2022-09-16T19:24:54.599Z,20.60
2022-09-16T19:29:56.984Z,20.70
2022-09-16T19:34:59.645Z,20.60
2022-09-16T19:40:02.330Z,20.70
2022-09-16T19:45:05.119Z,20.80
2022-09-16T19:50:07.733Z,19.50
2022-09-16T19:55:10.348Z,20.40
2022-09-16T20:00:16.155Z,20.90
2022-09-16T20:05:18.666Z,21.50
2022-09-16T20:10:22.034Z,21.90
2022-09-16T20:15:24.957Z,22.00
2022-09-16T20:20:27.649Z,22.20
2022-09-16T20:25:30.130Z,22.20
2022-09-16T20:30:32.562Z,22.30
2022-09-16T20:35:35.233Z,22.40
2022-09-16T20:40:37.695Z,22.60
2022-09-16T20:45:40.482Z,22.60
2022-09-16T20:50:43.209Z,22.70
2022-09-16T20:55:45.609Z,22.70
2022-09-16T21:00:48.263Z,22.70
2022-09-16T21:05:50.820Z,22.70
2022-09-16T21:10:53.425Z,22.70
2022-09-16T21:15:57.655Z,22.60
2022-09-16T21:21:14.528Z,22.50
2022-09-16T21:26:21.939Z,22.50
2022-09-16T21:31:26.249Z,22.50
2022-09-16T21:36:28.856Z,22.50
2022-09-16T21:41:31.440Z,22.40
2022-09-16T21:46:41.690Z,22.40
2022-09-16T21:51:44.275Z,22.40
2022-09-16T21:56:46.719Z,22.30
2022-09-16T22:01:50.881Z,22.20
2022-09-16T22:06:55.675Z,22.30
2022-09-16T22:11:58.105Z,22.20
2022-09-16T22:17:00.807Z,22.10
2022-09-16T22:22:03.383Z,22.20
2022-09-16T22:27:05.783Z,22.10
2022-09-16T22:32:08.251Z,22.10
2022-09-16T22:37:10.737Z,22.10
2022-09-16T22:42:13.268Z,21.90
2022-09-16T22:47:15.640Z,22.10
2022-09-16T22:52:18.095Z,22.10
2022-09-16T22:57:20.548Z,22.00
2022-09-16T23:02:23.475Z,22.00
2022-09-16T23:07:25.823Z,22.00
2022-09-16T23:12:28.595Z,22.00
2022-09-16T23:17:31.152Z,22.00
2022-09-16T23:22:33.705Z,21.90
2022-09-16T23:27:36.112Z,22.00
2022-09-16T23:32:38.555Z,21.90
2022-09-16T23:37:42.248Z,21.80
2022-09-16T23:42:44.656Z,21.90
2022-09-16T23:47:47.159Z,21.90
2022-09-16T23:52:59.078Z,21.70
2022-09-16T23:58:01.686Z,21.70
